Latest Weather Observations for Coondewanna

IDW60801

Issued at 5:03 pm WST Thursday 27 April 2017 (issued every 30 minutes, with the page automatically refreshed every 10 minutes)

About weather observations | Map of weather stations | Latest weather observations for WA | Other Formats
Station Details ID: 505051 Name: COONDEWANNA Lat: -22.96 Lon: 118.81 Height: 697.63 m
Data from the previous 72 hours. | See also: Recent months for locations in Western Australia
Date/Time
WST
Temp
°C
App
Temp
°C
Dew
Point
°C
Rel
Hum
%
Delta-T
°C
Wind Press
QNH
hPa
Press
MSL
hPa
Rain since
9am
mm
Dir  Spd
km/h
Gust
km/h
Spd
kts
Gust
kts
27/05:00pm 25.3 21.3 8.3 34 9.4 E 19 26 10 14 1020.0 1015.6 0.0
27/04:30pm 25.7 22.3 9.1 35 9.3 E 17 24 9 13 1019.9 1015.5 0.0
27/04:00pm 26.3 22.8 8.8 33 9.8 ESE 17 24 9 13 1019.8 1015.4 0.0
27/03:30pm 26.2 22.4 9.1 34 9.6 SE 19 26 10 14 1019.5 1015.1 0.0
27/03:00pm 26.2 22.7 8.7 33 9.8 E 17 26 9 14 1019.6 1015.3 0.0
27/02:30pm 25.6 22.3 8.1 33 9.7 ESE 15 22 8 12 1019.6 1015.3 0.0
27/02:00pm 25.4 22.1 8.0 33 9.6 SE 15 24 8 13 1020.0 1015.6 0.0
27/01:30pm 25.7 22.3 7.8 32 9.9 E 15 24 8 13 1020.2 1015.8 0.0
27/01:00pm 24.8 21.7 7.4 33 9.4 E 13 20 7 11 1020.6 1016.2 0.0
27/12:30pm 24.4 21.4 7.5 34 9.2 E 13 22 7 12 1021.1 1016.8 0.0
27/12:00pm 23.8 20.3 7.0 34 9.0 ENE 15 22 8 12 1021.8 1017.4 0.0
27/11:30am 23.4 20.0 7.5 36 8.6 E 15 24 8 13 1022.3 1018.0 0.0
27/11:00am 22.3 18.4 6.9 37 8.2 E 17 24 9 13 1022.9 1018.5 0.0
27/10:30am 22.3 17.9 7.3 38 8.0 E 20 28 11 15 1023.2 1018.8 0.0
27/10:00am 21.5 17.0 7.0 39 7.7 E 20 32 11 17 1023.7 1019.4 0.0
27/09:30am 20.6 16.7 7.2 42 7.1 ESE 17 24 9 13 1023.8 1019.5 0.0
27/09:00am 19.5 15.4 7.9 47 6.2 SE 19 22 10 12 1023.8 1019.5 0.0
27/08:30am 18.7 15.2 7.2 47 6.0 ESE 15 20 8 11 1023.6 1019.3 0.0
27/08:00am 18.3 16.5 7.1 48 5.8 SE 6 13 3 7 1023.6 1019.3 0.0
27/07:30am 16.8 15.5 7.7 55 4.8 SE 4 7 2 4 1023.4 1019.0 0.0
27/07:00am 14.2 14.2 9.8 75 2.3 CALM 0 0 0 0 1022.9 1018.5 0.0
27/06:30am 13.5 12.5 10.3 81 1.7 E 6 7 3 4 1022.5 1018.2 0.0
27/06:00am 13.7 13.8 10.1 79 1.9 CALM 0 6 0 3 1022.5 1018.2 0.0
27/05:30am 14.2 14.4 10.6 79 2.0 CALM 0 0 0 0 1022.3 1018.0 0.0
27/05:00am 14.2 13.1 10.0 76 2.3 E 6 9 3 5 1022.0 1017.6 0.0
27/04:30am 14.5 14.5 9.7 73 2.6 CALM 0 0 0 0 1022.0 1017.6 0.0
27/04:00am 15.2 14.9 8.7 65 3.4 CALM 0 0 0 0 1022.1 1017.7 0.0
27/03:30am 16.6 15.6 8.8 60 4.2 E 4 9 2 5 1022.0 1017.6 0.0
27/03:00am 17.5 14.9 6.1 47 5.8 E 9 15 5 8 1022.3 1018.0 0.0
27/02:30am 17.7 15.6 5.9 46 6.0 ENE 6 11 3 6 1022.4 1018.1 0.0
27/02:00am 17.9 14.9 5.8 45 6.1 E 11 15 6 8 1022.5 1018.2 0.0
27/01:30am 18.0 15.7 5.9 45 6.1 ENE 7 13 4 7 1023.0 1018.6 0.0
27/01:00am 18.3 15.2 5.5 43 6.4 E 11 20 6 11 1023.1 1018.7 0.0
27/12:30am 18.3 15.6 5.5 43 6.5 NE 9 15 5 8 1023.0 1018.6 0.0
27/12:00am 18.8 14.9 5.3 41 6.8 E 15 20 8 11 1023.0 1018.6 0.0
 
Date/Time
WST
Temp
°C
App
Temp
°C
Dew
Point
°C
Rel
Hum
%
Delta-T
°C
Wind Press
QNH
hPa
Press
MSL
hPa
Rain since
9am
mm
Dir  Spd
km/h
Gust
km/h
Spd
kts
Gust
kts
26/11:30pm 19.0 14.8 5.8 42 6.7 ESE 17 24 9 13 1022.9 1018.5 0.0
26/11:00pm 19.1 16.2 8.1 49 5.8 ESE 13 17 7 9 1023.4 1019.0 0.0
26/10:30pm 19.2 17.2 8.5 50 5.8 ESE 9 13 5 7 1023.8 1019.5 0.0
26/10:00pm 19.7 17.0 7.4 45 6.5 E 11 17 6 9 1023.9 1019.6 0.0
26/09:30pm 19.7 18.3 9.6 52 5.6 ESE 7 11 4 6 1023.7 1019.4 0.0
26/09:00pm 19.7 17.9 9.6 52 5.5 SE 9 15 5 8 1023.3 1018.9 0.0
26/08:30pm 20.2 17.3 9.5 50 5.9 ESE 15 20 8 11 1023.0 1018.6 0.0
26/08:00pm 20.6 17.4 9.8 50 6.0 ESE 17 24 9 13 1022.9 1018.5 0.0
26/07:30pm 21.0 18.3 10.2 50 6.1 SE 15 20 8 11 1022.2 1017.9 0.0
26/07:00pm 21.4 17.7 10.3 49 6.2 ESE 20 28 11 15 1021.5 1017.1 0.0
26/06:30pm 21.9 19.8 11.3 51 6.1 SE 13 19 7 10 1021.5 1017.1 0.0
26/06:00pm 22.3 19.4 11.1 49 6.4 ESE 17 24 9 13 1020.9 1016.6 0.0
26/05:30pm 22.7 20.8 11.7 49 6.4 E 13 19 7 10 1020.5 1016.1 0.0
26/05:00pm 23.2 20.9 11.6 48 6.7 E 15 20 8 11 1020.4 1016.0 0.0
26/04:30pm 23.6 20.5 11.6 47 7.0 E 19 26 10 14 1020.0 1015.6 0.0
26/04:00pm 23.8 20.5 11.5 46 7.1 E 20 30 11 16 1019.6 1015.3 0.0
26/03:30pm 24.0 20.6 11.3 45 7.4 ENE 20 28 11 15 1019.6 1015.3 0.0
26/03:00pm 23.8 20.5 11.5 46 7.1 E 20 26 11 14 1019.5 1015.1 0.0
26/02:30pm 23.8 20.5 11.5 46 7.1 E 20 28 11 15 1019.5 1015.1 0.0
26/02:00pm 24.1 20.9 11.8 46 7.2 E 20 30 11 16 1019.5 1015.1 0.0
26/01:30pm 23.5 20.7 11.5 47 7.0 E 17 24 9 13 1019.9 1015.5 0.0
26/01:00pm 23.6 20.4 12.0 48 6.8 ESE 20 30 11 16 1020.1 1015.7 0.0
26/12:30pm 22.9 18.9 11.9 50 6.4 E 24 32 13 17 1020.4 1016.0 0.0
26/12:00pm 22.3 18.6 11.4 50 6.3 E 22 33 12 18 1020.9 1016.6 0.0
26/11:30am 21.1 16.9 11.2 53 5.6 E 24 33 13 18 1021.5 1017.1 0.0
26/11:00am 20.8 16.7 11.4 55 5.4 ESE 24 32 13 17 1022.1 1017.7 0.0
26/10:30am 20.3 15.8 11.5 57 5.0 E 26 33 14 18 1022.4 1018.1 0.0
26/10:00am 19.4 15.4 11.9 62 4.3 E 24 32 13 17 1023.1 1018.7 0.0
26/09:30am 19.2 15.3 12.2 64 4.0 E 24 35 13 19 1023.2 1018.8 0.0
26/09:00am 19.0 16.0 12.5 66 3.7 E 20 30 11 16 1023.1 1018.7 0.0
26/08:30am 18.7 15.2 12.2 66 3.7 E 22 33 12 18 1023.0 1018.6 0.0
26/08:00am 18.3 15.4 12.3 68 3.4 E 19 26 10 14 1022.9 1018.5 0.0
26/07:30am 18.0 16.4 12.7 71 3.1 ENE 13 17 7 9 1022.9 1018.5 0.0
26/07:00am 17.7 16.5 12.8 73 2.8 E 11 19 6 10 1022.3 1018.0 0.0
26/06:30am 17.5 16.7 12.8 74 2.7 E 9 15 5 8 1022.1 1017.7 0.0
26/06:00am 17.8 16.3 13.1 74 2.7 ESE 13 20 7 11 1021.8 1017.4 0.0
26/05:30am 17.9 16.8 13.0 73 2.8 E 11 17 6 9 1021.6 1017.2 0.0
26/05:00am 18.2 15.4 13.1 72 3.0 E 20 30 11 16 1020.9 1016.6 0.0
26/04:30am 18.3 15.5 13.2 72 3.0 E 20 32 11 17 1020.8 1016.4 0.0
26/04:00am 18.5 15.0 13.4 72 3.0 E 24 35 13 19 1020.9 1016.6 0.0
26/03:30am 18.6 15.1 13.5 72 3.0 E 24 39 13 21 1020.5 1016.1 0.0
26/03:00am 18.8 15.0 13.6 72 3.1 E 26 37 14 20 1020.6 1016.2 0.0
26/02:30am 19.1 15.4 13.9 72 3.1 E 26 35 14 19 1020.7 1016.3 0.0
26/02:00am 19.4 15.8 14.2 72 3.1 E 26 35 14 19 1020.9 1016.6 0.0
26/01:30am 19.7 14.9 14.1 70 3.3 E 32 46 17 25 1020.8 1016.4 0.0
26/01:00am 20.1 17.1 15.9 77 2.6 E 26 35 14 19 1020.8 1016.4 0.0
26/12:32am 20.3 18.2 16.1 77 2.6 E 22 32 12 17 1021.0 1016.7 0.0
26/12:30am 20.4 18.3 16.2 77 2.6 E 22 32 12 17 1020.9 1016.6 0.0
26/12:00am 20.6 18.1 16.2 76 2.7 ESE 24 32 13 17 1020.9 1016.6 0.0
 
Date/Time
WST
Temp
°C
App
Temp
°C
Dew
Point
°C
Rel
Hum
%
Delta-T
°C
Wind Press
QNH
hPa
Press
MSL
hPa
Rain since
9am
mm
Dir  Spd
km/h
Gust
km/h
Spd
kts
Gust
kts
25/11:30pm 21.0 19.2 16.0 73 3.1 E 20 32 11 17 1021.3 1016.9 0.0
25/11:22pm 21.1 19.3 16.1 73 3.1 E 20 32 11 17 1021.4 1017.0 0.0
25/11:00pm 21.3 19.4 16.7 75 2.9 E 22 32 12 17 1021.3 1016.9 0.0
25/10:56pm 21.2 19.3 16.8 76 2.8 ESE 22 33 12 18 1021.3 1016.9 0.0
25/10:30pm 21.4 18.4 16.8 75 2.9 E 28 35 15 19 1020.9 1016.6 0.0
25/10:00pm 21.6 18.3 17.0 75 2.9 E 30 41 16 22 1020.9 1016.6 0.0
25/09:30pm 21.9 19.9 17.5 76 2.8 E 24 32 13 17 1020.9 1016.6 0.0
25/09:00pm 21.9 22.1 18.5 81 2.2 E 15 20 8 11 1021.0 1016.7 0.0
25/08:30pm 21.9 22.2 18.7 82 2.1 E 15 19 8 10 1020.8 1016.4 0.0
25/08:00pm 21.9 22.6 18.9 83 1.9 E 13 17 7 9 1020.3 1015.9 0.0
25/07:30pm 22.2 23.3 18.8 81 2.2 ENE 11 19 6 10 1020.1 1015.7 0.0
25/07:00pm 22.3 23.3 18.7 80 2.3 E 11 15 6 8 1019.5 1015.1 0.0
25/06:30pm 22.7 23.7 18.7 78 2.6 ENE 11 15 6 8 1019.3 1014.9 0.0
25/06:00pm 23.1 24.1 18.6 76 2.9 ENE 11 13 6 7 1019.2 1014.8 0.0
25/05:30pm 23.5 24.1 18.6 74 3.2 ENE 13 17 7 9 1018.8 1014.4 0.0
25/05:00pm 23.8 24.2 18.2 71 3.6 E 13 17 7 9 1018.5 1014.1 0.0
25/04:30pm 24.0 24.4 18.2 70 3.8 E 13 17 7 9 1018.3 1013.8 0.0
25/04:00pm 24.1 24.1 18.1 69 3.9 E 15 19 8 10 1017.6 1013.2 0.0
25/03:30pm 24.3 25.0 18.0 68 4.1 ENE 11 15 6 8 1017.7 1013.3 0.0
25/03:00pm 24.4 24.3 17.9 67 4.2 ENE 15 19 8 10 1017.7 1013.3 0.0
25/02:30pm 24.4 24.4 18.1 68 4.1 E 15 19 8 10 1017.6 1013.2 0.0
25/02:00pm 24.1 24.7 17.8 68 4.0 E 11 15 6 8 1017.7 1013.3 0.0
25/01:30pm 24.4 24.9 18.3 69 4.0 E 13 17 7 9 1017.8 1013.4 0.0
25/01:00pm 24.4 25.8 18.6 70 3.8 E 9 13 5 7 1018.0 1013.6 0.0
25/12:30pm 24.3 25.2 18.5 70 3.8 E 11 15 6 8 1018.1 1013.7 0.0
25/12:00pm 24.4 25.2 18.1 68 4.1 E 11 13 6 7 1018.5 1014.1 0.0
25/11:30am 24.2 25.4 18.2 69 3.9 E 9 15 5 8 1018.7 1014.3 0.0
25/11:00am 24.3 25.2 18.5 70 3.8 E 11 17 6 9 1019.1 1014.7 0.0
25/10:30am 23.9 24.4 18.3 71 3.6 E 13 20 7 11 1019.3 1014.9 0.0
25/10:00am 23.6 23.9 18.7 74 3.2 NE 15 20 8 11 1019.4 1015.0 0.0
25/09:30am 23.0 23.7 17.9 73 3.3 E 11 17 6 9 1019.8 1015.4 0.0
25/09:00am 21.9 22.1 17.7 77 2.7 E 13 17 7 9 1019.6 1015.3 17.2
25/08:30am 20.8 21.0 17.6 82 2.0 ENE 13 17 7 9 1019.4 1015.0 17.2
25/08:00am 20.2 21.3 18.0 87 1.4 E 9 13 5 7 1019.2 1014.8 17.2
25/07:30am 19.7 20.3 17.8 89 1.2 ENE 11 15 6 8 1019.2 1014.8 17.2
25/07:00am 19.5 20.2 18.0 91 1.0 E 11 13 6 7 1019.0 1014.6 17.2
25/06:30am 18.7 20.2 17.5 93 0.8 ENE 6 7 3 4 1018.8 1014.4 17.2
25/06:00am 18.9 19.9 17.7 93 0.8 ENE 9 11 5 6 1018.5 1014.1 17.2
25/05:30am 18.9 20.3 17.7 93 0.8 ENE 7 9 4 5 1018.3 1013.8 17.2
25/05:00am 19.0 19.3 17.8 93 0.8 E 13 15 7 8 1017.7 1013.3 17.2
25/04:30am 19.1 18.5 17.6 91 0.9 E 17 20 9 11 1017.7 1013.3 17.2
25/04:00am 19.4 18.9 17.9 91 0.9 E 17 20 9 11 1017.6 1013.2 17.2
25/03:30am 19.6 20.0 18.1 91 1.0 E 13 17 7 9 1017.4 1013.0 17.2
25/03:00am 19.6 20.4 18.1 91 1.0 E 11 15 6 8 1017.1 1012.7 17.2
25/02:30am 19.6 21.4 18.8 95 0.5 NE 7 9 4 5 1017.1 1012.7 17.2
25/02:00am 19.3 22.3 18.5 95 0.5 CALM 0 0 0 0 1017.1 1012.7 17.2
25/01:30am 19.3 22.3 18.5 95 0.5 CALM 0 0 0 0 1017.2 1012.8 17.2
25/01:00am 19.3 22.3 18.5 95 0.5 CALM 0 0 0 0 1017.2 1012.8 17.2
25/12:30am 19.5 22.6 18.7 95 0.5 CALM 0 0 0 0 1017.2 1012.8 17.2
25/12:00am 19.7 22.8 18.7 94 0.6 CALM 0 0 0 0 1017.1 1012.7 17.2
 
Date/Time
WST
Temp
°C
App
Temp
°C
Dew
Point
°C
Rel
Hum
%
Delta-T
°C
Wind Press
QNH
hPa
Press
MSL
hPa
Rain since
9am
mm
Dir  Spd
km/h
Gust
km/h
Spd
kts
Gust
kts
24/11:30pm 19.5 22.5 18.5 94 0.6 CALM 0 0 0 0 1017.2 1012.8 17.2
24/11:00pm 19.7 22.7 18.5 93 0.8 CALM 0 0 0 0 1017.4 1013.0 17.2
24/10:30pm 20.0 22.4 18.7 92 0.8 NE 4 7 2 4 1017.5 1013.1 17.2
24/10:00pm 20.0 22.7 18.7 92 0.8 NE 2 6 1 3 1017.6 1013.2 17.2
24/09:30pm 20.2 23.4 18.9 92 0.8 CALM 0 0 0 0 1017.7 1013.3 17.2
24/09:00pm 20.2 23.2 18.5 90 1.1 CALM 0 0 0 0 1017.7 1013.3 17.2
24/08:30pm 20.8 23.9 18.7 88 1.4 CALM 0 0 0 0 1017.6 1013.2 17.2
24/08:00pm 21.3 24.4 18.7 85 1.7 CALM 0 0 0 0 1017.5 1013.1 17.2
24/07:30pm 21.6 23.5 18.6 83 1.9 NE 6 7 3 4 1017.4 1013.0 17.2
24/07:00pm 22.3 23.2 18.3 78 2.6 E 11 15 6 8 1016.9 1012.4 17.2
24/06:30pm 22.8 23.9 17.9 74 3.1 E 9 17 5 9 1016.8 1012.3 17.2
24/06:00pm 23.8 24.6 18.2 71 3.6 N 11 15 6 8 1016.3 1011.9 17.2
24/05:30pm 23.8 25.4 17.8 69 3.9 NNE 6 9 3 5 1015.8 1011.4 17.2

Other Formats:

Comma delimited format used in spreadsheet applications
http://www.bom.gov.au/fwo/IDW60801/IDW60801.99312.axf

JavaScript Object Notation format (JSON) in row-major order
http://www.bom.gov.au/fwo/IDW60801/IDW60801.99312.json